Gillette, WY

3:08 PM MDT on August 21, 2014 (GMT -0600)
Gillette-Campbell County | Change Station
CLOSE
Current Station
Airport
Location: Gillette,
Elevation: 4364 ft
Nearby Weather Stations

Elev 4364 ft 44.34 °N, 105.54 °W | Updated 15 minutes ago

Partly Cloudy
Partly Cloudy
80 °F
Feels Like 80 °F
N
8
Wind Variable Wind from West

Today
High -- | Low -- °F
--% Chance of Precip.
Yesterday
High -- | Low -- °F
Precip. -- in
6:12 AM 7:58 PM
Waning Crescent, 12% visible
Pressure 29.86 in
Visibility 10.0 miles
Clouds Few 10000 ft
Dew Point 50 °F
Humidity 35%
Rainfall 0.02 in
Snow Depth Not available.
UV 8 out of 12
Pollen 8.50 out of 12
Air Quality Not available.
Flu Activity Not available.
METAR KGCC 212053Z AUTO 28007KT 10SM FEW100 27/10 A2999 RMK AO2 SLP111 T02670100 58009

More Conditions Fewer Conditions

Pressure 29.86 in
Visibility 10.0 miles
Clouds Few 10000 ft
Dew Point 50 °F
Humidity 35%
Rainfall 0.02 in
Snow Depth Not available.
UV 8 out of 12
Pollen 8.50 out of 12
Air Quality Not available.
Flu Activity Not available.
METAR KGCC 212053Z AUTO 28007KT 10SM FEW100 27/10 A2999 RMK AO2 SLP111 T02670100 58009

More Conditions Fewer Conditions

10-Day Weather Forecast

Almanac

Astronomy

Aug. 21, 2014 Rise Set
Actual Time 6:12 AM MDT 7:58 PM MDT
Civil Twilight 5:41 AM MDT 8:29 PM MDT
Nautical Twilight 5:03 AM MDT 9:06 PM MDT
Astronomical Twilight 4:22 AM MDT 9:47 PM MDT
Moon 2:41 AM MDT 5:32 PM MDT
Length of Visible Light 14h 47m
Length of Day
13h 45m
Tomorrow will be 2m 51s shorter.
Waning Crescent, 12% of the Moon is Illuminated
Today
Waning Crescent
Aug 25
New
Sep 2
First Quarter
Sep 8
Full
Sep 15
Last Quarter

Today's Extremes

State Highs State Lows

Community

WunderPhotos

Upload Photos

1,746,019 photos uploaded!

WunderBlogs® & News

Nearby

Snow Depth

Station Depth Elevation
Casper Mountain 0 in 7850 ft
Reno Hill 0 in 8500 ft
Sylvan Lake 0 in 8420 ft
Big Sandy Opening 0 in 9080 ft
Crow Creek 7 in 8330 ft

Earthquake Activity

City Distance Mag. Time & Date
No recent earthquake activity has been reported nearby.
Minimum magnitude displayed is 2.5.

Coastal Water Temperatures

Place Temperature
No Stations Reporting

Nearby Weather Stations